sensor_id;sensor_type;location;lat;lon;timestamp;P1;durP1;ratioP1;P2;durP2;ratioP2
21152;SDS011;10734;44.792;20.482;2022-10-16T00:00:36;8.85;;;4.30;;
21152;SDS011;10734;44.792;20.482;2022-10-16T00:03:04;7.28;;;3.72;;
21152;SDS011;10734;44.792;20.482;2022-10-16T00:05:32;7.72;;;3.92;;
21152;SDS011;10734;44.792;20.482;2022-10-16T00:07:59;9.05;;;3.67;;
21152;SDS011;10734;44.792;20.482;2022-10-16T00:10:26;9.00;;;3.97;;
21152;SDS011;10734;44.792;20.482;2022-10-16T00:12:52;11.43;;;4.28;;
21152;SDS011;10734;44.792;20.482;2022-10-16T00:15:19;7.95;;;3.40;;
21152;SDS011;10734;44.792;20.482;2022-10-16T00:17:46;9.13;;;3.83;;
21152;SDS011;10734;44.792;20.482;2022-10-16T00:20:12;8.93;;;3.90;;
21152;SDS011;10734;44.792;20.482;2022-10-16T00:22:39;7.72;;;3.95;;
21152;SDS011;10734;44.792;20.482;2022-10-16T00:25:06;11.90;;;3.70;;
21152;SDS011;10734;44.792;20.482;2022-10-16T00:27:33;10.43;;;3.92;;
21152;SDS011;10734;44.792;20.482;2022-10-16T00:30:00;14.32;;;3.90;;
21152;SDS011;10734;44.792;20.482;2022-10-16T00:32:27;5.68;;;3.20;;
21152;SDS011;10734;44.792;20.482;2022-10-16T00:34:54;6.15;;;3.40;;
21152;SDS011;10734;44.792;20.482;2022-10-16T00:37:20;11.45;;;3.95;;
21152;SDS011;10734;44.792;20.482;2022-10-16T00:39:47;7.18;;;3.72;;
21152;SDS011;10734;44.792;20.482;2022-10-16T00:42:17;11.15;;;4.30;;
21152;SDS011;10734;44.792;20.482;2022-10-16T00:44:49;8.70;;;4.00;;
21152;SDS011;10734;44.792;20.482;2022-10-16T00:47:19;6.97;;;3.75;;
21152;SDS011;10734;44.792;20.482;2022-10-16T00:49:51;7.72;;;3.60;;
21152;SDS011;10734;44.792;20.482;2022-10-16T00:52:22;10.25;;;3.97;;
21152;SDS011;10734;44.792;20.482;2022-10-16T00:54:49;13.50;;;3.70;;
21152;SDS011;10734;44.792;20.482;2022-10-16T00:57:16;7.55;;;3.58;;
21152;SDS011;10734;44.792;20.482;2022-10-16T00:59:43;8.95;;;3.83;;
21152;SDS011;10734;44.792;20.482;2022-10-16T01:02:12;7.38;;;4.07;;
21152;SDS011;10734;44.792;20.482;2022-10-16T01:04:48;12.63;;;4.30;;
21152;SDS011;10734;44.792;20.482;2022-10-16T01:07:20;7.80;;;4.07;;
21152;SDS011;10734;44.792;20.482;2022-10-16T01:12:38;5.80;;;3.45;;
21152;SDS011;10734;44.792;20.482;2022-10-16T01:15:22;9.88;;;3.60;;
21152;SDS011;10734;44.792;20.482;2022-10-16T01:20:33;6.50;;;4.00;;
21152;SDS011;10734;44.792;20.482;2022-10-16T01:26:10;8.07;;;4.00;;
21152;SDS011;10734;44.792;20.482;2022-10-16T01:31:44;9.60;;;4.30;;
21152;SDS011;10734;44.792;20.482;2022-10-16T01:34:18;7.50;;;4.05;;
21152;SDS011;10734;44.792;20.482;2022-10-16T01:36:51;9.20;;;3.88;;
21152;SDS011;10734;44.792;20.482;2022-10-16T01:39:23;9.90;;;3.80;;
21152;SDS011;10734;44.792;20.482;2022-10-16T01:44:26;10.35;;;3.70;;
21152;SDS011;10734;44.792;20.482;2022-10-16T01:46:57;10.27;;;3.38;;
21152;SDS011;10734;44.792;20.482;2022-10-16T01:49:26;7.47;;;3.35;;
21152;SDS011;10734;44.792;20.482;2022-10-16T01:54:30;11.85;;;4.22;;
21152;SDS011;10734;44.792;20.482;2022-10-16T01:56:59;9.70;;;3.75;;
21152;SDS011;10734;44.792;20.482;2022-10-16T01:59:28;7.00;;;3.90;;
21152;SDS011;10734;44.792;20.482;2022-10-16T02:02:01;7.35;;;3.40;;
21152;SDS011;10734;44.792;20.482;2022-10-16T02:04:34;8.90;;;3.58;;
21152;SDS011;10734;44.792;20.482;2022-10-16T02:09:33;6.75;;;3.05;;
21152;SDS011;10734;44.792;20.482;2022-10-16T02:12:01;7.18;;;3.78;;
21152;SDS011;10734;44.792;20.482;2022-10-16T02:14:37;5.85;;;3.50;;
21152;SDS011;10734;44.792;20.482;2022-10-16T02:17:11;10.65;;;4.05;;
21152;SDS011;10734;44.792;20.482;2022-10-16T02:19:40;8.02;;;3.67;;
21152;SDS011;10734;44.792;20.482;2022-10-16T02:22:08;7.88;;;3.58;;
21152;SDS011;10734;44.792;20.482;2022-10-16T02:30:13;8.75;;;3.72;;
21152;SDS011;10734;44.792;20.482;2022-10-16T02:32:46;12.00;;;4.05;;
21152;SDS011;10734;44.792;20.482;2022-10-16T02:35:16;9.45;;;3.75;;
21152;SDS011;10734;44.792;20.482;2022-10-16T02:37:45;12.40;;;4.00;;
21152;SDS011;10734;44.792;20.482;2022-10-16T02:40:13;7.18;;;4.03;;
21152;SDS011;10734;44.792;20.482;2022-10-16T02:42:40;5.90;;;3.97;;
21152;SDS011;10734;44.792;20.482;2022-10-16T02:45:07;7.15;;;4.18;;
21152;SDS011;10734;44.792;20.482;2022-10-16T02:47:36;6.05;;;4.07;;
21152;SDS011;10734;44.792;20.482;2022-10-16T02:50:03;8.80;;;4.28;;
21152;SDS011;10734;44.792;20.482;2022-10-16T02:52:30;8.77;;;4.05;;
21152;SDS011;10734;44.792;20.482;2022-10-16T02:54:57;10.32;;;4.07;;
21152;SDS011;10734;44.792;20.482;2022-10-16T02:57:23;8.13;;;4.45;;
21152;SDS011;10734;44.792;20.482;2022-10-16T02:59:51;6.20;;;4.15;;
21152;SDS011;10734;44.792;20.482;2022-10-16T03:02:17;9.70;;;4.38;;
21152;SDS011;10734;44.792;20.482;2022-10-16T03:04:44;7.53;;;4.85;;
21152;SDS011;10734;44.792;20.482;2022-10-16T03:07:11;5.95;;;4.05;;
21152;SDS011;10734;44.792;20.482;2022-10-16T03:09:37;8.48;;;4.18;;
21152;SDS011;10734;44.792;20.482;2022-10-16T03:12:04;11.57;;;4.22;;
21152;SDS011;10734;44.792;20.482;2022-10-16T03:14:31;9.43;;;4.45;;
21152;SDS011;10734;44.792;20.482;2022-10-16T03:16:57;13.20;;;4.50;;
21152;SDS011;10734;44.792;20.482;2022-10-16T03:19:24;6.35;;;4.15;;
21152;SDS011;10734;44.792;20.482;2022-10-16T03:21:50;7.82;;;4.90;;
21152;SDS011;10734;44.792;20.482;2022-10-16T03:24:17;9.75;;;4.72;;
21152;SDS011;10734;44.792;20.482;2022-10-16T03:26:44;6.30;;;3.55;;
21152;SDS011;10734;44.792;20.482;2022-10-16T03:29:10;10.02;;;4.03;;
21152;SDS011;10734;44.792;20.482;2022-10-16T03:31:37;9.88;;;3.78;;
21152;SDS011;10734;44.792;20.482;2022-10-16T03:34:04;8.57;;;3.72;;
21152;SDS011;10734;44.792;20.482;2022-10-16T03:36:30;6.10;;;3.85;;
21152;SDS011;10734;44.792;20.482;2022-10-16T03:38:57;7.38;;;3.45;;
21152;SDS011;10734;44.792;20.482;2022-10-16T03:41:24;8.32;;;3.60;;
21152;SDS011;10734;44.792;20.482;2022-10-16T03:43:50;6.10;;;3.55;;
21152;SDS011;10734;44.792;20.482;2022-10-16T03:46:17;9.60;;;4.40;;
21152;SDS011;10734;44.792;20.482;2022-10-16T03:48:43;15.35;;;4.10;;
21152;SDS011;10734;44.792;20.482;2022-10-16T03:51:10;8.93;;;4.30;;
21152;SDS011;10734;44.792;20.482;2022-10-16T03:53:37;7.32;;;3.63;;
21152;SDS011;10734;44.792;20.482;2022-10-16T03:56:03;6.93;;;4.03;;
21152;SDS011;10734;44.792;20.482;2022-10-16T03:58:30;7.50;;;4.22;;
21152;SDS011;10734;44.792;20.482;2022-10-16T04:00:57;12.15;;;4.47;;
21152;SDS011;10734;44.792;20.482;2022-10-16T04:03:23;12.50;;;4.53;;
21152;SDS011;10734;44.792;20.482;2022-10-16T04:05:50;15.25;;;5.03;;
21152;SDS011;10734;44.792;20.482;2022-10-16T04:08:17;11.30;;;4.25;;
21152;SDS011;10734;44.792;20.482;2022-10-16T04:10:44;7.95;;;3.60;;
21152;SDS011;10734;44.792;20.482;2022-10-16T04:13:11;10.13;;;3.60;;
21152;SDS011;10734;44.792;20.482;2022-10-16T04:15:38;9.45;;;3.90;;
21152;SDS011;10734;44.792;20.482;2022-10-16T04:18:05;9.02;;;3.90;;
21152;SDS011;10734;44.792;20.482;2022-10-16T04:20:32;10.48;;;4.32;;
21152;SDS011;10734;44.792;20.482;2022-10-16T04:22:59;11.13;;;4.75;;
21152;SDS011;10734;44.792;20.482;2022-10-16T04:25:26;9.35;;;4.55;;
21152;SDS011;10734;44.792;20.482;2022-10-16T04:27:53;8.25;;;4.25;;
21152;SDS011;10734;44.792;20.482;2022-10-16T04:30:21;11.48;;;4.18;;
21152;SDS011;10734;44.792;20.482;2022-10-16T04:32:49;12.80;;;5.00;;
21152;SDS011;10734;44.792;20.482;2022-10-16T04:35:17;11.02;;;5.28;;
21152;SDS011;10734;44.792;20.482;2022-10-16T04:37:45;9.32;;;4.85;;
21152;SDS011;10734;44.792;20.482;2022-10-16T04:40:12;12.07;;;4.25;;
21152;SDS011;10734;44.792;20.482;2022-10-16T04:42:39;6.95;;;4.07;;
21152;SDS011;10734;44.792;20.482;2022-10-16T04:45:07;8.93;;;3.97;;
21152;SDS011;10734;44.792;20.482;2022-10-16T04:47:39;12.63;;;4.45;;
21152;SDS011;10734;44.792;20.482;2022-10-16T04:50:06;7.53;;;4.05;;
21152;SDS011;10734;44.792;20.482;2022-10-16T04:52:33;8.52;;;3.88;;
21152;SDS011;10734;44.792;20.482;2022-10-16T04:55:05;7.32;;;3.83;;
21152;SDS011;10734;44.792;20.482;2022-10-16T04:57:32;8.35;;;4.00;;
21152;SDS011;10734;44.792;20.482;2022-10-16T04:59:59;6.68;;;3.50;;
21152;SDS011;10734;44.792;20.482;2022-10-16T05:02:26;7.38;;;3.85;;
21152;SDS011;10734;44.792;20.482;2022-10-16T05:04:53;12.20;;;4.28;;
21152;SDS011;10734;44.792;20.482;2022-10-16T05:07:20;7.38;;;4.47;;
21152;SDS011;10734;44.792;20.482;2022-10-16T05:09:46;11.70;;;3.72;;
21152;SDS011;10734;44.792;20.482;2022-10-16T05:12:13;7.60;;;3.88;;
21152;SDS011;10734;44.792;20.482;2022-10-16T05:14:39;12.68;;;4.00;;
21152;SDS011;10734;44.792;20.482;2022-10-16T05:17:07;9.05;;;3.80;;
21152;SDS011;10734;44.792;20.482;2022-10-16T05:19:33;8.13;;;4.00;;
21152;SDS011;10734;44.792;20.482;2022-10-16T05:22:00;8.57;;;3.55;;
21152;SDS011;10734;44.792;20.482;2022-10-16T05:24:26;9.52;;;4.18;;
21152;SDS011;10734;44.792;20.482;2022-10-16T05:26:53;12.82;;;4.13;;
21152;SDS011;10734;44.792;20.482;2022-10-16T05:29:20;12.43;;;4.15;;
21152;SDS011;10734;44.792;20.482;2022-10-16T05:31:49;7.78;;;4.55;;
21152;SDS011;10734;44.792;20.482;2022-10-16T05:34:18;8.82;;;4.20;;
21152;SDS011;10734;44.792;20.482;2022-10-16T05:36:45;7.95;;;3.65;;
21152;SDS011;10734;44.792;20.482;2022-10-16T05:39:13;8.07;;;4.18;;
21152;SDS011;10734;44.792;20.482;2022-10-16T05:41:41;14.02;;;4.78;;
21152;SDS011;10734;44.792;20.482;2022-10-16T05:44:08;11.80;;;4.45;;
21152;SDS011;10734;44.792;20.482;2022-10-16T05:46:34;9.48;;;4.55;;
21152;SDS011;10734;44.792;20.482;2022-10-16T05:49:01;7.47;;;4.07;;
21152;SDS011;10734;44.792;20.482;2022-10-16T05:51:28;9.15;;;3.60;;
21152;SDS011;10734;44.792;20.482;2022-10-16T05:53:54;8.27;;;4.00;;
21152;SDS011;10734;44.792;20.482;2022-10-16T05:56:21;9.02;;;3.80;;
21152;SDS011;10734;44.792;20.482;2022-10-16T05:58:48;8.32;;;4.35;;
21152;SDS011;10734;44.792;20.482;2022-10-16T06:01:18;9.50;;;4.03;;
21152;SDS011;10734;44.792;20.482;2022-10-16T06:03:47;8.98;;;4.20;;
21152;SDS011;10734;44.792;20.482;2022-10-16T06:06:14;7.30;;;4.15;;
21152;SDS011;10734;44.792;20.482;2022-10-16T06:08:46;7.53;;;4.10;;
21152;SDS011;10734;44.792;20.482;2022-10-16T06:11:15;9.88;;;3.90;;
21152;SDS011;10734;44.792;20.482;2022-10-16T06:13:43;8.63;;;4.53;;
21152;SDS011;10734;44.792;20.482;2022-10-16T06:16:12;10.98;;;4.45;;
21152;SDS011;10734;44.792;20.482;2022-10-16T06:18:39;6.72;;;4.00;;
21152;SDS011;10734;44.792;20.482;2022-10-16T06:21:28;10.57;;;3.78;;
21152;SDS011;10734;44.792;20.482;2022-10-16T06:23:55;6.78;;;3.33;;
21152;SDS011;10734;44.792;20.482;2022-10-16T06:26:23;11.57;;;4.53;;
21152;SDS011;10734;44.792;20.482;2022-10-16T06:28:53;9.40;;;4.35;;
21152;SDS011;10734;44.792;20.482;2022-10-16T06:31:21;10.25;;;4.13;;
21152;SDS011;10734;44.792;20.482;2022-10-16T06:33:52;9.80;;;4.57;;
21152;SDS011;10734;44.792;20.482;2022-10-16T06:36:19;7.82;;;3.95;;
21152;SDS011;10734;44.792;20.482;2022-10-16T06:38:46;7.57;;;4.00;;
21152;SDS011;10734;44.792;20.482;2022-10-16T06:41:15;7.50;;;4.28;;
21152;SDS011;10734;44.792;20.482;2022-10-16T06:43:44;8.52;;;4.25;;
21152;SDS011;10734;44.792;20.482;2022-10-16T06:46:12;7.80;;;4.13;;
21152;SDS011;10734;44.792;20.482;2022-10-16T06:48:41;8.82;;;4.15;;
21152;SDS011;10734;44.792;20.482;2022-10-16T06:51:09;10.18;;;4.30;;
21152;SDS011;10734;44.792;20.482;2022-10-16T06:53:41;7.60;;;4.25;;
21152;SDS011;10734;44.792;20.482;2022-10-16T06:56:27;6.85;;;3.95;;
21152;SDS011;10734;44.792;20.482;2022-10-16T06:58:56;11.07;;;5.13;;
21152;SDS011;10734;44.792;20.482;2022-10-16T07:01:23;12.25;;;4.63;;
21152;SDS011;10734;44.792;20.482;2022-10-16T07:03:52;7.35;;;4.40;;
21152;SDS011;10734;44.792;20.482;2022-10-16T07:06:20;9.00;;;4.30;;
21152;SDS011;10734;44.792;20.482;2022-10-16T07:08:48;8.10;;;4.20;;
21152;SDS011;10734;44.792;20.482;2022-10-16T07:11:19;12.35;;;4.78;;
21152;SDS011;10734;44.792;20.482;2022-10-16T07:13:48;10.57;;;5.47;;
21152;SDS011;10734;44.792;20.482;2022-10-16T07:16:22;12.98;;;4.75;;
21152;SDS011;10734;44.792;20.482;2022-10-16T07:18:50;8.25;;;4.20;;
21152;SDS011;10734;44.792;20.482;2022-10-16T07:21:21;18.15;;;4.30;;
21152;SDS011;10734;44.792;20.482;2022-10-16T07:23:56;8.88;;;4.35;;
21152;SDS011;10734;44.792;20.482;2022-10-16T07:26:25;7.80;;;4.15;;
21152;SDS011;10734;44.792;20.482;2022-10-16T07:28:53;7.00;;;3.75;;
21152;SDS011;10734;44.792;20.482;2022-10-16T07:31:20;7.90;;;3.65;;
21152;SDS011;10734;44.792;20.482;2022-10-16T07:33:47;7.47;;;3.90;;
21152;SDS011;10734;44.792;20.482;2022-10-16T07:36:15;8.07;;;3.75;;
21152;SDS011;10734;44.792;20.482;2022-10-16T07:38:45;8.80;;;3.53;;
21152;SDS011;10734;44.792;20.482;2022-10-16T07:41:14;8.25;;;4.75;;
21152;SDS011;10734;44.792;20.482;2022-10-16T07:43:48;11.80;;;4.32;;
21152;SDS011;10734;44.792;20.482;2022-10-16T07:46:17;7.38;;;4.32;;
21152;SDS011;10734;44.792;20.482;2022-10-16T07:48:45;9.57;;;4.03;;
21152;SDS011;10734;44.792;20.482;2022-10-16T07:51:14;10.38;;;4.78;;
21152;SDS011;10734;44.792;20.482;2022-10-16T07:53:41;7.70;;;4.28;;
21152;SDS011;10734;44.792;20.482;2022-10-16T07:56:08;7.45;;;3.85;;
21152;SDS011;10734;44.792;20.482;2022-10-16T07:58:35;5.35;;;3.30;;
21152;SDS011;10734;44.792;20.482;2022-10-16T08:01:07;7.30;;;3.60;;
21152;SDS011;10734;44.792;20.482;2022-10-16T08:03:35;9.18;;;3.85;;
21152;SDS011;10734;44.792;20.482;2022-10-16T08:06:02;6.60;;;3.35;;
21152;SDS011;10734;44.792;20.482;2022-10-16T08:08:30;5.50;;;2.67;;
21152;SDS011;10734;44.792;20.482;2022-10-16T08:10:57;8.50;;;3.00;;
21152;SDS011;10734;44.792;20.482;2022-10-16T08:13:23;6.03;;;2.88;;
21152;SDS011;10734;44.792;20.482;2022-10-16T08:15:50;5.47;;;2.97;;
21152;SDS011;10734;44.792;20.482;2022-10-16T08:18:17;6.10;;;2.80;;
21152;SDS011;10734;44.792;20.482;2022-10-16T08:20:57;10.38;;;3.22;;
21152;SDS011;10734;44.792;20.482;2022-10-16T08:23:25;6.50;;;3.03;;
21152;SDS011;10734;44.792;20.482;2022-10-16T08:25:53;4.28;;;3.17;;
21152;SDS011;10734;44.792;20.482;2022-10-16T08:28:20;9.15;;;3.13;;
21152;SDS011;10734;44.792;20.482;2022-10-16T08:30:48;6.47;;;3.20;;
21152;SDS011;10734;44.792;20.482;2022-10-16T08:33:14;5.70;;;3.28;;
21152;SDS011;10734;44.792;20.482;2022-10-16T08:35:41;7.03;;;3.10;;
21152;SDS011;10734;44.792;20.482;2022-10-16T08:38:08;5.00;;;3.20;;
21152;SDS011;10734;44.792;20.482;2022-10-16T08:40:36;6.78;;;3.67;;
21152;SDS011;10734;44.792;20.482;2022-10-16T08:46:02;7.38;;;3.10;;
21152;SDS011;10734;44.792;20.482;2022-10-16T08:48:49;8.63;;;3.70;;
21152;SDS011;10734;44.792;20.482;2022-10-16T08:51:22;8.90;;;3.08;;
21152;SDS011;10734;44.792;20.482;2022-10-16T08:53:52;5.80;;;3.15;;
21152;SDS011;10734;44.792;20.482;2022-10-16T08:56:22;8.82;;;3.45;;
21152;SDS011;10734;44.792;20.482;2022-10-16T08:58:49;6.60;;;3.10;;
21152;SDS011;10734;44.792;20.482;2022-10-16T09:01:23;5.80;;;3.20;;
21152;SDS011;10734;44.792;20.482;2022-10-16T09:17:53;5.57;;;3.60;;
21152;SDS011;10734;44.792;20.482;2022-10-16T09:20:55;10.23;;;4.18;;
21152;SDS011;10734;44.792;20.482;2022-10-16T09:23:40;6.93;;;3.58;;
21152;SDS011;10734;44.792;20.482;2022-10-16T09:26:09;10.65;;;3.40;;
21152;SDS011;10734;44.792;20.482;2022-10-16T09:28:39;4.38;;;2.80;;
21152;SDS011;10734;44.792;20.482;2022-10-16T09:31:10;8.07;;;2.90;;
21152;SDS011;10734;44.792;20.482;2022-10-16T09:33:42;9.07;;;3.40;;
21152;SDS011;10734;44.792;20.482;2022-10-16T09:36:11;6.07;;;3.65;;
21152;SDS011;10734;44.792;20.482;2022-10-16T09:38:39;6.53;;;3.40;;
21152;SDS011;10734;44.792;20.482;2022-10-16T09:41:21;8.32;;;3.47;;
21152;SDS011;10734;44.792;20.482;2022-10-16T09:43:56;8.32;;;3.72;;
21152;SDS011;10734;44.792;20.482;2022-10-16T09:49:00;6.93;;;3.40;;
21152;SDS011;10734;44.792;20.482;2022-10-16T09:51:35;6.10;;;3.22;;
21152;SDS011;10734;44.792;20.482;2022-10-16T09:54:13;5.97;;;3.70;;
21152;SDS011;10734;44.792;20.482;2022-10-16T09:56:41;6.72;;;4.25;;
21152;SDS011;10734;44.792;20.482;2022-10-16T09:59:12;5.53;;;3.63;;
21152;SDS011;10734;44.792;20.482;2022-10-16T10:01:48;6.13;;;3.67;;
21152;SDS011;10734;44.792;20.482;2022-10-16T10:04:20;5.82;;;3.80;;
21152;SDS011;10734;44.792;20.482;2022-10-16T10:06:49;6.78;;;3.97;;
21152;SDS011;10734;44.792;20.482;2022-10-16T10:11:51;8.60;;;4.53;;
21152;SDS011;10734;44.792;20.482;2022-10-16T10:14:35;8.40;;;3.85;;
21152;SDS011;10734;44.792;20.482;2022-10-16T10:22:17;8.02;;;3.88;;
21152;SDS011;10734;44.792;20.482;2022-10-16T10:36:25;6.68;;;3.88;;
21152;SDS011;10734;44.792;20.482;2022-10-16T10:39:15;7.80;;;3.60;;
21152;SDS011;10734;44.792;20.482;2022-10-16T10:50:41;6.60;;;3.95;;
21152;SDS011;10734;44.792;20.482;2022-10-16T10:53:18;7.93;;;4.03;;
21152;SDS011;10734;44.792;20.482;2022-10-16T10:55:57;7.28;;;3.85;;
21152;SDS011;10734;44.792;20.482;2022-10-16T11:01:43;4.88;;;3.72;;
21152;SDS011;10734;44.792;20.482;2022-10-16T11:06:40;8.50;;;4.55;;
21152;SDS011;10734;44.792;20.482;2022-10-16T11:09:15;7.13;;;3.70;;
21152;SDS011;10734;44.792;20.482;2022-10-16T11:11:45;6.68;;;4.03;;
21152;SDS011;10734;44.792;20.482;2022-10-16T11:16:58;5.65;;;4.47;;
21152;SDS011;10734;44.792;20.482;2022-10-16T11:22:00;15.60;;;4.97;;
21152;SDS011;10734;44.792;20.482;2022-10-16T11:26:57;6.47;;;4.45;;
21152;SDS011;10734;44.792;20.482;2022-10-16T11:29:30;10.80;;;4.70;;
21152;SDS011;10734;44.792;20.482;2022-10-16T11:35:02;7.47;;;4.18;;
21152;SDS011;10734;44.792;20.482;2022-10-16T11:37:41;6.10;;;4.10;;
21152;SDS011;10734;44.792;20.482;2022-10-16T11:45:57;6.60;;;4.30;;
21152;SDS011;10734;44.792;20.482;2022-10-16T11:48:39;9.70;;;4.05;;
21152;SDS011;10734;44.792;20.482;2022-10-16T11:51:16;10.65;;;4.05;;
21152;SDS011;10734;44.792;20.482;2022-10-16T11:56:54;7.90;;;4.85;;
21152;SDS011;10734;44.792;20.482;2022-10-16T12:01:53;9.85;;;4.95;;
21152;SDS011;10734;44.792;20.482;2022-10-16T12:04:45;6.47;;;4.30;;
21152;SDS011;10734;44.792;20.482;2022-10-16T12:07:23;7.72;;;4.20;;
21152;SDS011;10734;44.792;20.482;2022-10-16T12:09:54;5.47;;;4.30;;
21152;SDS011;10734;44.792;20.482;2022-10-16T12:12:24;8.95;;;5.00;;
21152;SDS011;10734;44.792;20.482;2022-10-16T12:18:23;9.32;;;5.18;;
21152;SDS011;10734;44.792;20.482;2022-10-16T12:20:57;8.98;;;4.75;;
21152;SDS011;10734;44.792;20.482;2022-10-16T12:23:37;10.75;;;5.10;;
21152;SDS011;10734;44.792;20.482;2022-10-16T12:26:12;5.90;;;4.25;;
21152;SDS011;10734;44.792;20.482;2022-10-16T12:28:39;8.30;;;4.80;;
21152;SDS011;10734;44.792;20.482;2022-10-16T12:31:07;9.02;;;4.90;;
21152;SDS011;10734;44.792;20.482;2022-10-16T12:33:42;13.32;;;4.63;;
21152;SDS011;10734;44.792;20.482;2022-10-16T12:36:27;10.73;;;5.70;;
21152;SDS011;10734;44.792;20.482;2022-10-16T12:38:59;8.50;;;5.47;;
21152;SDS011;10734;44.792;20.482;2022-10-16T12:41:31;14.57;;;6.75;;
21152;SDS011;10734;44.792;20.482;2022-10-16T12:44:20;11.88;;;6.45;;
21152;SDS011;10734;44.792;20.482;2022-10-16T12:46:49;12.88;;;5.75;;
21152;SDS011;10734;44.792;20.482;2022-10-16T12:49:36;10.43;;;5.38;;
21152;SDS011;10734;44.792;20.482;2022-10-16T12:52:04;7.93;;;4.70;;
21152;SDS011;10734;44.792;20.482;2022-10-16T12:54:50;6.70;;;4.80;;
21152;SDS011;10734;44.792;20.482;2022-10-16T13:00:44;5.80;;;3.90;;
21152;SDS011;10734;44.792;20.482;2022-10-16T13:17:01;13.82;;;4.55;;
21152;SDS011;10734;44.792;20.482;2022-10-16T13:19:44;8.90;;;5.57;;
21152;SDS011;10734;44.792;20.482;2022-10-16T13:25:13;6.78;;;5.18;;
21152;SDS011;10734;44.792;20.482;2022-10-16T13:28:08;10.57;;;6.00;;
21152;SDS011;10734;44.792;20.482;2022-10-16T13:35:47;5.82;;;4.63;;
21152;SDS011;10734;44.792;20.482;2022-10-16T13:38:19;8.45;;;4.53;;
21152;SDS011;10734;44.792;20.482;2022-10-16T13:41:00;8.77;;;4.73;;
21152;SDS011;10734;44.792;20.482;2022-10-16T13:43:32;6.20;;;4.60;;
21152;SDS011;10734;44.792;20.482;2022-10-16T13:46:13;6.95;;;4.07;;
21152;SDS011;10734;44.792;20.482;2022-10-16T13:48:41;5.80;;;4.93;;
21152;SDS011;10734;44.792;20.482;2022-10-16T13:51:13;7.90;;;4.30;;
21152;SDS011;10734;44.792;20.482;2022-10-16T13:53:44;7.63;;;4.57;;
21152;SDS011;10734;44.792;20.482;2022-10-16T13:56:15;8.32;;;5.00;;
21152;SDS011;10734;44.792;20.482;2022-10-16T13:58:45;6.30;;;5.03;;
21152;SDS011;10734;44.792;20.482;2022-10-16T14:03:44;7.57;;;5.15;;
21152;SDS011;10734;44.792;20.482;2022-10-16T14:06:16;8.77;;;5.20;;
21152;SDS011;10734;44.792;20.482;2022-10-16T14:08:49;13.10;;;6.20;;
21152;SDS011;10734;44.792;20.482;2022-10-16T14:11:21;9.77;;;6.45;;
21152;SDS011;10734;44.792;20.482;2022-10-16T14:13:52;10.68;;;6.25;;
21152;SDS011;10734;44.792;20.482;2022-10-16T14:16:20;14.35;;;5.57;;
21152;SDS011;10734;44.792;20.482;2022-10-16T14:18:59;8.38;;;5.03;;
21152;SDS011;10734;44.792;20.482;2022-10-16T14:21:28;13.93;;;4.50;;
21152;SDS011;10734;44.792;20.482;2022-10-16T14:23:55;9.50;;;4.35;;
21152;SDS011;10734;44.792;20.482;2022-10-16T14:26:23;10.65;;;5.10;;
21152;SDS011;10734;44.792;20.482;2022-10-16T14:29:11;7.38;;;5.18;;
21152;SDS011;10734;44.792;20.482;2022-10-16T14:31:40;10.13;;;4.35;;
21152;SDS011;10734;44.792;20.482;2022-10-16T14:34:24;8.80;;;5.35;;
21152;SDS011;10734;44.792;20.482;2022-10-16T14:36:56;8.43;;;4.78;;
21152;SDS011;10734;44.792;20.482;2022-10-16T14:39:27;10.18;;;4.93;;
21152;SDS011;10734;44.792;20.482;2022-10-16T14:41:55;13.95;;;4.80;;
21152;SDS011;10734;44.792;20.482;2022-10-16T14:44:26;9.40;;;4.65;;
21152;SDS011;10734;44.792;20.482;2022-10-16T14:46:56;7.40;;;4.47;;
21152;SDS011;10734;44.792;20.482;2022-10-16T14:49:23;9.45;;;4.72;;
21152;SDS011;10734;44.792;20.482;2022-10-16T14:51:50;9.57;;;5.47;;
21152;SDS011;10734;44.792;20.482;2022-10-16T14:54:18;16.05;;;4.70;;
21152;SDS011;10734;44.792;20.482;2022-10-16T14:56:50;9.00;;;4.72;;
21152;SDS011;10734;44.792;20.482;2022-10-16T14:59:28;8.13;;;4.60;;
21152;SDS011;10734;44.792;20.482;2022-10-16T15:01:58;8.15;;;4.70;;
21152;SDS011;10734;44.792;20.482;2022-10-16T15:04:24;6.40;;;4.43;;
21152;SDS011;10734;44.792;20.482;2022-10-16T15:06:51;6.80;;;5.05;;
21152;SDS011;10734;44.792;20.482;2022-10-16T15:09:18;7.65;;;5.18;;
21152;SDS011;10734;44.792;20.482;2022-10-16T15:11:44;10.90;;;5.40;;
21152;SDS011;10734;44.792;20.482;2022-10-16T15:14:12;8.65;;;5.30;;
21152;SDS011;10734;44.792;20.482;2022-10-16T15:16:44;8.23;;;5.38;;
21152;SDS011;10734;44.792;20.482;2022-10-16T15:19:12;7.20;;;5.30;;
21152;SDS011;10734;44.792;20.482;2022-10-16T15:21:38;9.93;;;6.05;;
21152;SDS011;10734;44.792;20.482;2022-10-16T15:24:08;9.98;;;5.63;;
21152;SDS011;10734;44.792;20.482;2022-10-16T15:26:43;14.85;;;6.60;;
21152;SDS011;10734;44.792;20.482;2022-10-16T15:29:12;11.23;;;6.30;;
21152;SDS011;10734;44.792;20.482;2022-10-16T15:31:39;9.38;;;6.28;;
21152;SDS011;10734;44.792;20.482;2022-10-16T15:34:09;10.90;;;6.95;;
21152;SDS011;10734;44.792;20.482;2022-10-16T15:36:37;12.35;;;6.32;;
21152;SDS011;10734;44.792;20.482;2022-10-16T15:39:14;12.18;;;7.00;;
21152;SDS011;10734;44.792;20.482;2022-10-16T15:41:42;10.75;;;6.68;;
21152;SDS011;10734;44.792;20.482;2022-10-16T15:44:11;13.75;;;10.00;;
21152;SDS011;10734;44.792;20.482;2022-10-16T15:46:38;16.77;;;8.00;;
21152;SDS011;10734;44.792;20.482;2022-10-16T15:49:05;11.85;;;7.20;;
21152;SDS011;10734;44.792;20.482;2022-10-16T15:51:32;10.25;;;6.90;;
21152;SDS011;10734;44.792;20.482;2022-10-16T15:54:00;12.68;;;6.68;;
21152;SDS011;10734;44.792;20.482;2022-10-16T15:56:29;20.40;;;6.00;;
21152;SDS011;10734;44.792;20.482;2022-10-16T15:59:00;12.65;;;5.60;;
21152;SDS011;10734;44.792;20.482;2022-10-16T16:01:33;8.25;;;5.38;;
21152;SDS011;10734;44.792;20.482;2022-10-16T16:04:05;14.73;;;5.82;;
21152;SDS011;10734;44.792;20.482;2022-10-16T16:06:51;16.35;;;6.50;;
21152;SDS011;10734;44.792;20.482;2022-10-16T16:09:19;14.40;;;7.10;;
21152;SDS011;10734;44.792;20.482;2022-10-16T16:11:46;15.82;;;7.70;;
21152;SDS011;10734;44.792;20.482;2022-10-16T16:14:15;28.13;;;8.50;;
21152;SDS011;10734;44.792;20.482;2022-10-16T16:16:43;20.33;;;7.43;;
21152;SDS011;10734;44.792;20.482;2022-10-16T16:19:09;17.58;;;6.05;;
21152;SDS011;10734;44.792;20.482;2022-10-16T16:21:38;22.38;;;5.78;;
21152;SDS011;10734;44.792;20.482;2022-10-16T16:24:07;14.82;;;5.68;;
21152;SDS011;10734;44.792;20.482;2022-10-16T16:26:35;11.38;;;5.82;;
21152;SDS011;10734;44.792;20.482;2022-10-16T16:29:11;19.10;;;6.63;;
21152;SDS011;10734;44.792;20.482;2022-10-16T16:31:40;12.93;;;5.72;;
21152;SDS011;10734;44.792;20.482;2022-10-16T16:34:08;16.02;;;5.57;;
21152;SDS011;10734;44.792;20.482;2022-10-16T16:36:36;12.60;;;5.65;;
21152;SDS011;10734;44.792;20.482;2022-10-16T16:39:04;11.52;;;5.57;;
21152;SDS011;10734;44.792;20.482;2022-10-16T16:41:32;11.73;;;5.65;;
21152;SDS011;10734;44.792;20.482;2022-10-16T16:44:06;14.70;;;6.20;;
21152;SDS011;10734;44.792;20.482;2022-10-16T16:46:41;12.23;;;5.93;;
21152;SDS011;10734;44.792;20.482;2022-10-16T16:49:11;16.75;;;6.55;;
21152;SDS011;10734;44.792;20.482;2022-10-16T16:51:39;12.70;;;5.63;;
21152;SDS011;10734;44.792;20.482;2022-10-16T16:54:09;11.15;;;5.90;;
21152;SDS011;10734;44.792;20.482;2022-10-16T16:56:38;12.02;;;6.53;;
21152;SDS011;10734;44.792;20.482;2022-10-16T17:01:45;13.63;;;5.97;;